Time;durP1;ratioP1;P1;durP2;ratioP2;P2;SDS_P1;SDS_P2;PMS_P1;PMS_P2;Temp;Humidity;BMP_temperature;BMP_pressure;BME280_temperature;BME280_humidity;BME280_pressure;Samples;Min_cycle;Max_cycle;Signal;HPM_P1;HPM_P2
2021/12/12 00:00:28;;;;;;;14.07;5.95;;;;;;;;;;4979582;28;20157;-69
2021/12/12 00:03:01;;;;;;;13.88;6.30;;;;;;;;;;4952324;28;20129;-69
2021/12/12 00:05:31;;;;;;;12.02;6.10;;;;;;;;;;4969270;28;20055;-69
2021/12/12 00:08:00;;;;;;;10.77;5.68;;;;;;;;;;4984159;28;20163;-69
2021/12/12 00:10:29;;;;;;;11.60;5.43;;;;;;;;;;4967204;28;20556;-69
2021/12/12 00:13:01;;;;;;;14.00;5.90;;;;;;;;;;4971130;28;20122;-69
2021/12/12 00:15:30;;;;;;;13.80;6.20;;;;;;;;;;4971217;28;20518;-69
2021/12/12 00:17:58;;;;;;;11.93;6.10;;;;;;;;;;5006133;28;20180;-69
2021/12/12 00:20:28;;;;;;;11.77;5.93;;;;;;;;;;5026497;28;20466;-69
2021/12/12 00:22:59;;;;;;;14.68;6.88;;;;;;;;;;5023454;28;20045;-69
2021/12/12 00:25:28;;;;;;;8.52;5.38;;;;;;;;;;5023963;28;20071;-69
2021/12/12 00:27:57;;;;;;;13.20;6.10;;;;;;;;;;5021800;28;20046;-69
2021/12/12 00:30:26;;;;;;;13.50;5.97;;;;;;;;;;5018548;28;20568;-69
2021/12/12 00:32:55;;;;;;;13.68;6.30;;;;;;;;;;5027108;28;20173;-69
2021/12/12 00:35:24;;;;;;;12.48;5.90;;;;;;;;;;5022310;28;20042;-69
2021/12/12 00:41:13;;;;;;;13.20;5.95;;;;;;;;;;5013283;28;20137;-69
2021/12/12 00:43:43;;;;;;;9.60;5.50;;;;;;;;;;5021456;28;20085;-69
2021/12/12 00:46:17;;;;;;;12.32;5.55;;;;;;;;;;5011320;28;20049;-69
2021/12/12 00:48:46;;;;;;;12.05;5.85;;;;;;;;;;5018278;28;20096;-69
2021/12/12 00:51:16;;;;;;;12.27;4.57;;;;;;;;;;5021257;28;20140;-69
2021/12/12 00:53:45;;;;;;;12.52;5.43;;;;;;;;;;5023709;28;20041;-69
2021/12/12 00:56:14;;;;;;;9.25;5.28;;;;;;;;;;5032585;28;20046;-69
2021/12/12 00:58:43;;;;;;;13.18;5.82;;;;;;;;;;5021034;28;20132;-69
2021/12/12 01:01:12;;;;;;;13.18;6.75;;;;;;;;;;5022926;28;20512;-69
2021/12/12 01:03:44;;;;;;;11.45;5.47;;;;;;;;;;5015651;28;20158;-69
2021/12/12 01:06:13;;;;;;;12.48;6.57;;;;;;;;;;5016556;28;20041;-69
2021/12/12 01:08:43;;;;;;;14.05;6.43;;;;;;;;;;5025618;28;20050;-69
2021/12/12 01:11:12;;;;;;;12.73;5.63;;;;;;;;;;5015642;28;20485;-69
2021/12/12 01:13:42;;;;;;;13.88;5.55;;;;;;;;;;5024850;28;20042;-69
2021/12/12 01:16:13;;;;;;;13.27;5.35;;;;;;;;;;5021491;28;20061;-69
2021/12/12 01:18:46;;;;;;;14.70;6.57;;;;;;;;;;5020451;28;20151;-69
2021/12/12 01:21:16;;;;;;;13.30;7.00;;;;;;;;;;5025047;28;20053;-69
2021/12/12 01:23:46;;;;;;;11.63;6.35;;;;;;;;;;5020496;28;20136;-68
2021/12/12 01:26:15;;;;;;;14.77;6.78;;;;;;;;;;5022264;28;20046;-69
2021/12/12 01:28:44;;;;;;;14.38;6.38;;;;;;;;;;5021492;28;20076;-69
2021/12/12 01:31:16;;;;;;;12.95;6.00;;;;;;;;;;5019539;28;20053;-69
2021/12/12 01:33:48;;;;;;;12.15;6.03;;;;;;;;;;5027464;28;20133;-69
2021/12/12 01:36:24;;;;;;;15.50;6.22;;;;;;;;;;5026436;28;20045;-69
2021/12/12 01:38:55;;;;;;;16.17;6.47;;;;;;;;;;5026373;28;20146;-69
2021/12/12 01:41:25;;;;;;;11.10;5.95;;;;;;;;;;5027261;28;20510;-69
2021/12/12 01:43:56;;;;;;;12.45;6.15;;;;;;;;;;5019766;28;20565;-69
2021/12/12 01:46:26;;;;;;;14.85;6.15;;;;;;;;;;5017300;28;20133;-69
2021/12/12 01:48:57;;;;;;;10.60;5.78;;;;;;;;;;5028041;28;20553;-69
2021/12/12 01:51:26;;;;;;;12.20;5.75;;;;;;;;;;5017694;28;20156;-69
2021/12/12 01:53:56;;;;;;;15.45;6.22;;;;;;;;;;5017226;28;20076;-69
2021/12/12 01:56:26;;;;;;;14.50;6.57;;;;;;;;;;5018937;28;20437;-69
2021/12/12 01:58:58;;;;;;;14.27;5.63;;;;;;;;;;5019788;28;20052;-69
2021/12/12 02:01:30;;;;;;;15.77;6.50;;;;;;;;;;5018075;28;20080;-69
2021/12/12 02:04:03;;;;;;;12.77;6.70;;;;;;;;;;5028038;28;20053;-69
2021/12/12 02:06:32;;;;;;;12.80;6.53;;;;;;;;;;5031766;28;20140;-69
2021/12/12 02:09:00;;;;;;;12.90;6.38;;;;;;;;;;5032129;28;20104;-69
2021/12/12 02:11:31;;;;;;;11.32;5.40;;;;;;;;;;5018881;28;20112;-70
2021/12/12 02:14:07;;;;;;;15.27;6.32;;;;;;;;;;5028389;28;20753;-69
2021/12/12 02:16:36;;;;;;;13.57;5.72;;;;;;;;;;5027061;28;20077;-69
2021/12/12 02:19:08;;;;;;;15.23;6.43;;;;;;;;;;5014443;28;20404;-69
2021/12/12 02:21:52;;;;;;;14.93;7.03;;;;;;;;;;5020781;28;20049;-69
2021/12/12 02:35:45;;;;;;;13.07;6.68;;;;;;;;;;4983793;28;20054;-69
2021/12/12 02:38:15;;;;;;;12.13;6.22;;;;;;;;;;4971169;28;20046;-69
2021/12/12 02:40:46;;;;;;;14.75;6.68;;;;;;;;;;5005817;28;20051;-70
2021/12/12 02:43:16;;;;;;;14.95;5.82;;;;;;;;;;5029402;28;20132;-69
2021/12/12 02:45:45;;;;;;;14.55;6.32;;;;;;;;;;5017988;28;20660;-69
2021/12/12 02:48:18;;;;;;;13.15;6.10;;;;;;;;;;5020650;28;20144;-69
2021/12/12 02:50:48;;;;;;;12.95;6.35;;;;;;;;;;5029101;28;20049;-69
2021/12/12 02:53:18;;;;;;;11.85;5.32;;;;;;;;;;5027788;28;20136;-70
2021/12/12 02:55:49;;;;;;;14.02;6.97;;;;;;;;;;5024464;28;20052;-69
2021/12/12 02:58:20;;;;;;;16.98;6.55;;;;;;;;;;5023803;28;20390;-69
2021/12/12 03:00:51;;;;;;;20.77;6.72;;;;;;;;;;5018409;28;20512;-69
2021/12/12 03:03:20;;;;;;;14.80;5.85;;;;;;;;;;5029510;28;20472;-69
2021/12/12 03:05:49;;;;;;;14.38;6.28;;;;;;;;;;5019298;28;20176;-70
2021/12/12 03:08:17;;;;;;;14.00;6.13;;;;;;;;;;5029866;28;20465;-69
2021/12/12 03:10:49;;;;;;;17.48;6.45;;;;;;;;;;5025022;28;20056;-69
2021/12/12 03:13:18;;;;;;;15.13;6.78;;;;;;;;;;5026513;28;20160;-69
2021/12/12 03:15:47;;;;;;;14.23;5.88;;;;;;;;;;5021257;28;20136;-69
2021/12/12 03:18:17;;;;;;;14.18;6.60;;;;;;;;;;5019728;28;20131;-69
2021/12/12 03:20:47;;;;;;;15.93;6.15;;;;;;;;;;5028373;28;20041;-69
2021/12/12 03:23:19;;;;;;;15.55;6.32;;;;;;;;;;5025668;28;20457;-69
2021/12/12 03:25:51;;;;;;;13.48;5.60;;;;;;;;;;5031262;28;20072;-69
2021/12/12 03:28:22;;;;;;;14.32;6.32;;;;;;;;;;5026191;28;20483;-69
2021/12/12 03:30:54;;;;;;;12.80;5.80;;;;;;;;;;5029045;28;20501;-69
2021/12/12 03:33:35;;;;;;;14.65;7.35;;;;;;;;;;2434404;28;10023768;-69
2021/12/12 03:36:13;;;;;;;12.93;5.85;;;;;;;;;;3640446;28;10001307;-69
2021/12/12 03:38:42;;;;;;;12.48;5.57;;;;;;;;;;5017574;28;20485;-69
2021/12/12 03:41:14;;;;;;;19.15;6.57;;;;;;;;;;5017261;28;20051;-68
2021/12/12 03:43:45;;;;;;;14.93;6.25;;;;;;;;;;5013659;28;20144;-69
2021/12/12 03:46:14;;;;;;;13.02;6.25;;;;;;;;;;5027748;28;20037;-69
2021/12/12 03:48:43;;;;;;;14.20;5.95;;;;;;;;;;5015332;28;20520;-69
2021/12/12 03:51:13;;;;;;;15.77;5.97;;;;;;;;;;5017057;28;20076;-69
2021/12/12 03:53:42;;;;;;;11.95;5.30;;;;;;;;;;5025875;28;20061;-69
2021/12/12 03:56:12;;;;;;;12.32;6.15;;;;;;;;;;5026369;28;20128;-69
2021/12/12 03:58:41;;;;;;;15.75;5.40;;;;;;;;;;5023338;28;20768;-69
2021/12/12 04:01:12;;;;;;;8.50;5.13;;;;;;;;;;5019870;28;20401;-69
2021/12/12 04:03:40;;;;;;;13.23;6.10;;;;;;;;;;5023616;28;20148;-69
2021/12/12 04:06:17;;;;;;;10.63;5.72;;;;;;;;;;5024372;28;20573;-69
2021/12/12 04:08:47;;;;;;;14.02;5.43;;;;;;;;;;5022532;28;20169;-69
2021/12/12 04:11:17;;;;;;;14.30;5.47;;;;;;;;;;5032116;28;20466;-69
2021/12/12 04:13:48;;;;;;;11.25;5.28;;;;;;;;;;5014579;28;20046;-69
2021/12/12 04:16:16;;;;;;;11.90;5.88;;;;;;;;;;5017714;28;20564;-69
2021/12/12 04:18:45;;;;;;;10.15;5.05;;;;;;;;;;5017544;28;20042;-69
2021/12/12 04:21:14;;;;;;;13.38;5.53;;;;;;;;;;5026295;28;20374;-69
2021/12/12 04:23:42;;;;;;;10.85;6.07;;;;;;;;;;5025389;28;20097;-70
2021/12/12 04:26:16;;;;;;;11.98;5.55;;;;;;;;;;5022062;28;20046;-70
2021/12/12 04:28:44;;;;;;;11.30;5.63;;;;;;;;;;5024179;28;20570;-70
2021/12/12 04:31:16;;;;;;;12.02;5.05;;;;;;;;;;5023139;28;20135;-70
2021/12/12 04:33:45;;;;;;;11.93;5.60;;;;;;;;;;5020394;28;20445;-70
2021/12/12 04:36:16;;;;;;;13.65;5.57;;;;;;;;;;5015139;28;20498;-70
2021/12/12 04:38:44;;;;;;;10.50;5.60;;;;;;;;;;5017995;28;20129;-70
2021/12/12 04:41:23;;;;;;;10.50;4.80;;;;;;;;;;5022908;28;20045;-70
2021/12/12 04:43:51;;;;;;;9.30;4.97;;;;;;;;;;5024210;28;20128;-70
2021/12/12 04:46:25;;;;;;;10.90;5.85;;;;;;;;;;5022432;28;20446;-70
2021/12/12 04:51:43;;;;;;;9.60;5.03;;;;;;;;;;5021661;28;20132;-70
2021/12/12 04:54:14;;;;;;;11.90;6.30;;;;;;;;;;5021149;28;20057;-70
2021/12/12 04:56:50;;;;;;;12.68;5.65;;;;;;;;;;5024593;28;20494;-70
2021/12/12 04:59:20;;;;;;;12.95;5.88;;;;;;;;;;5024495;28;20164;-70
2021/12/12 05:01:55;;;;;;;10.93;5.03;;;;;;;;;;5027981;28;20053;-70
2021/12/12 05:04:24;;;;;;;13.23;5.30;;;;;;;;;;5018133;28;20049;-71
2021/12/12 05:06:57;;;;;;;12.20;5.22;;;;;;;;;;5019904;28;20289;-70
2021/12/12 05:09:28;;;;;;;10.50;4.85;;;;;;;;;;5021798;28;20053;-70
2021/12/12 05:12:01;;;;;;;12.38;5.47;;;;;;;;;;5012341;28;20054;-70
2021/12/12 05:14:32;;;;;;;13.85;5.50;;;;;;;;;;5022540;28;20045;-70
2021/12/12 05:17:06;;;;;;;12.18;5.93;;;;;;;;;;5027749;28;20132;-70
2021/12/12 05:19:34;;;;;;;11.95;5.15;;;;;;;;;;5028453;28;20069;-70
2021/12/12 05:22:08;;;;;;;10.27;5.03;;;;;;;;;;5019825;28;20041;-70
2021/12/12 05:24:37;;;;;;;10.93;5.32;;;;;;;;;;5029554;28;20084;-70
2021/12/12 05:27:07;;;;;;;13.00;5.30;;;;;;;;;;5019725;28;20120;-70
2021/12/12 05:29:40;;;;;;;11.50;5.32;;;;;;;;;;5026196;28;20037;-70
2021/12/12 05:32:11;;;;;;;16.92;6.50;;;;;;;;;;5028485;28;20496;-70
2021/12/12 05:34:40;;;;;;;12.15;5.47;;;;;;;;;;5027673;28;20137;-70
2021/12/12 05:37:11;;;;;;;14.00;5.95;;;;;;;;;;5032321;28;20144;-70
2021/12/12 05:39:39;;;;;;;10.88;5.18;;;;;;;;;;5025397;28;20564;-70
2021/12/12 05:42:08;;;;;;;11.70;5.20;;;;;;;;;;5024075;28;20049;-70
2021/12/12 05:44:37;;;;;;;10.30;5.38;;;;;;;;;;5017611;28;20074;-70
2021/12/12 05:47:07;;;;;;;11.27;5.00;;;;;;;;;;5021488;28;20145;-70
2021/12/12 05:49:39;;;;;;;11.77;5.70;;;;;;;;;;5023018;28;20049;-70
2021/12/12 05:52:07;;;;;;;13.82;5.25;;;;;;;;;;5030404;28;20128;-70
2021/12/12 05:54:36;;;;;;;11.70;5.18;;;;;;;;;;5024039;28;20159;-70
2021/12/12 05:57:05;;;;;;;11.32;5.20;;;;;;;;;;5022256;28;20504;-70
2021/12/12 05:59:34;;;;;;;11.88;5.32;;;;;;;;;;5021813;28;20168;-70
2021/12/12 06:02:07;;;;;;;14.75;6.07;;;;;;;;;;5002873;28;20467;-70
2021/12/12 06:04:36;;;;;;;12.38;5.35;;;;;;;;;;5019332;28;20141;-70
2021/12/12 06:07:08;;;;;;;11.63;4.95;;;;;;;;;;5023970;28;20172;-70
2021/12/12 06:09:37;;;;;;;11.75;4.93;;;;;;;;;;5020944;28;20045;-70
2021/12/12 06:12:06;;;;;;;9.60;4.60;;;;;;;;;;5011907;28;20052;-70
2021/12/12 06:14:37;;;;;;;9.23;4.93;;;;;;;;;;5028536;28;20406;-70
2021/12/12 06:17:08;;;;;;;11.80;5.45;;;;;;;;;;5025694;28;20136;-70
2021/12/12 06:19:37;;;;;;;9.77;5.00;;;;;;;;;;5012754;28;20136;-70
2021/12/12 06:22:07;;;;;;;11.05;5.25;;;;;;;;;;5022798;28;20049;-71
2021/12/12 06:24:36;;;;;;;12.35;5.25;;;;;;;;;;5021487;28;20049;-70
2021/12/12 06:27:06;;;;;;;11.68;5.00;;;;;;;;;;5024977;28;20056;-70
2021/12/12 06:29:34;;;;;;;9.15;4.47;;;;;;;;;;5020523;28;20139;-70
2021/12/12 06:32:03;;;;;;;8.40;4.72;;;;;;;;;;5031017;28;20187;-70
2021/12/12 06:34:31;;;;;;;8.48;4.57;;;;;;;;;;5017263;28;20050;-70
2021/12/12 06:36:59;;;;;;;10.13;4.72;;;;;;;;;;5018246;28;20062;-70
2021/12/12 06:39:29;;;;;;;8.82;4.60;;;;;;;;;;5017386;28;20049;-70
2021/12/12 06:41:58;;;;;;;9.43;4.65;;;;;;;;;;5015276;28;20084;-70
2021/12/12 06:44:27;;;;;;;10.63;5.07;;;;;;;;;;5018739;28;20065;-70
2021/12/12 06:46:55;;;;;;;9.00;4.50;;;;;;;;;;5019962;28;20060;-69
2021/12/12 06:49:24;;;;;;;9.13;4.53;;;;;;;;;;5018443;28;20047;-70
2021/12/12 06:51:54;;;;;;;7.22;3.63;;;;;;;;;;5019635;28;20188;-70
2021/12/12 06:54:23;;;;;;;8.80;3.78;;;;;;;;;;5013788;28;20136;-70
2021/12/12 06:56:54;;;;;;;9.15;4.47;;;;;;;;;;5012219;28;20077;-70
2021/12/12 06:59:23;;;;;;;8.55;4.13;;;;;;;;;;5016219;28;20557;-70
2021/12/12 07:01:52;;;;;;;10.75;4.85;;;;;;;;;;5021388;28;20052;-70
2021/12/12 07:04:20;;;;;;;8.50;4.57;;;;;;;;;;5003977;28;20465;-69
2021/12/12 07:06:50;;;;;;;10.70;3.85;;;;;;;;;;5012675;28;20053;-72
2021/12/12 07:09:18;;;;;;;8.70;4.43;;;;;;;;;;5017564;28;20168;-69
2021/12/12 07:11:47;;;;;;;9.73;4.20;;;;;;;;;;5021445;28;20132;-69
2021/12/12 07:14:17;;;;;;;9.90;4.63;;;;;;;;;;5021401;28;20045;-69
2021/12/12 07:16:46;;;;;;;6.82;3.70;;;;;;;;;;5023611;28;20125;-70
2021/12/12 07:19:16;;;;;;;7.90;4.22;;;;;;;;;;5026432;28;20478;-70
2021/12/12 07:21:45;;;;;;;9.10;3.85;;;;;;;;;;5013160;28;20050;-69
2021/12/12 07:24:14;;;;;;;9.10;4.72;;;;;;;;;;5020520;28;20060;-70
2021/12/12 07:26:42;;;;;;;7.47;3.83;;;;;;;;;;5019465;28;20590;-70
2021/12/12 07:29:10;;;;;;;8.45;4.10;;;;;;;;;;5025055;28;20111;-69
2021/12/12 07:31:41;;;;;;;9.68;4.28;;;;;;;;;;5014885;28;20049;-69
2021/12/12 07:34:10;;;;;;;8.85;4.78;;;;;;;;;;5010372;28;20061;-70
2021/12/12 07:36:41;;;;;;;11.05;3.97;;;;;;;;;;5013201;28;20177;-69
2021/12/12 07:39:10;;;;;;;7.30;4.15;;;;;;;;;;5019333;28;20474;-70
2021/12/12 07:41:39;;;;;;;9.73;4.30;;;;;;;;;;5014662;28;20140;-70
2021/12/12 07:44:08;;;;;;;7.30;3.80;;;;;;;;;;5012574;28;20052;-70
2021/12/12 07:46:43;;;;;;;10.00;4.22;;;;;;;;;;5028908;28;20454;-70
2021/12/12 07:49:12;;;;;;;10.05;3.97;;;;;;;;;;5025796;28;20118;-69
2021/12/12 07:51:41;;;;;;;11.43;4.03;;;;;;;;;;5017481;28;20124;-69
2021/12/12 07:54:10;;;;;;;7.68;3.97;;;;;;;;;;5013600;28;20053;-69
2021/12/12 07:56:40;;;;;;;7.05;3.55;;;;;;;;;;5014617;28;20134;-69
2021/12/12 07:59:09;;;;;;;8.48;3.28;;;;;;;;;;5021710;28;20462;-69
2021/12/12 08:01:39;;;;;;;10.18;3.58;;;;;;;;;;5015028;28;20055;-69
2021/12/12 08:04:08;;;;;;;9.07;3.50;;;;;;;;;;5018366;28;20052;-69
2021/12/12 08:06:37;;;;;;;9.05;3.85;;;;;;;;;;5020359;28;20049;-69
2021/12/12 08:09:06;;;;;;;8.75;3.75;;;;;;;;;;5013614;28;20573;-69
2021/12/12 08:11:34;;;;;;;9.10;4.53;;;;;;;;;;5014352;28;20049;-69
2021/12/12 08:14:04;;;;;;;10.48;4.35;;;;;;;;;;5018932;28;20087;-70
2021/12/12 08:16:45;;;;;;;7.05;3.90;;;;;;;;;;5022658;28;20053;-69
2021/12/12 08:19:15;;;;;;;7.63;4.07;;;;;;;;;;5014523;28;20069;-69
2021/12/12 08:21:44;;;;;;;8.52;3.83;;;;;;;;;;5017379;28;20128;-69
2021/12/12 08:24:12;;;;;;;6.47;3.75;;;;;;;;;;5019975;28;20063;-70
2021/12/12 08:26:42;;;;;;;11.25;3.67;;;;;;;;;;5021187;28;20052;-70
2021/12/12 08:29:13;;;;;;;8.85;3.95;;;;;;;;;;5022616;28;20145;-70
2021/12/12 08:31:41;;;;;;;7.53;3.63;;;;;;;;;;5022801;28;20048;-70
2021/12/12 08:34:10;;;;;;;8.13;3.80;;;;;;;;;;5015588;28;20061;-71
2021/12/12 08:36:42;;;;;;;7.63;3.78;;;;;;;;;;5020556;28;20152;-70
2021/12/12 08:39:11;;;;;;;7.07;3.75;;;;;;;;;;5025857;28;20072;-70
2021/12/12 08:41:40;;;;;;;7.88;4.10;;;;;;;;;;5021037;28;20045;-70
2021/12/12 08:44:09;;;;;;;7.55;3.42;;;;;;;;;;5023601;28;20155;-70
2021/12/12 08:46:38;;;;;;;8.15;3.92;;;;;;;;;;5012302;28;20152;-70
2021/12/12 08:49:08;;;;;;;7.05;3.72;;;;;;;;;;5024786;28;20584;-71
2021/12/12 08:51:38;;;;;;;7.85;3.95;;;;;;;;;;5013499;28;20140;-70
2021/12/12 08:54:14;;;;;;;8.25;4.07;;;;;;;;;;5015476;28;20140;-71
2021/12/12 08:56:49;;;;;;;7.10;3.60;;;;;;;;;;5026391;28;20099;-70
2021/12/12 08:59:19;;;;;;;7.55;4.45;;;;;;;;;;5011704;28;20056;-70
2021/12/12 09:01:49;;;;;;;10.98;4.57;;;;;;;;;;5023883;28;20053;-71
2021/12/12 09:07:52;;;;;;;9.43;4.28;;;;;;;;;;5014895;28;20567;-70
2021/12/12 09:10:25;;;;;;;7.57;4.22;;;;;;;;;;5022206;28;20160;-71
2021/12/12 09:12:56;;;;;;;7.95;4.05;;;;;;;;;;5025052;28;20129;-70
2021/12/12 09:15:27;;;;;;;7.97;3.72;;;;;;;;;;5012790;28;20062;-69
2021/12/12 09:17:56;;;;;;;9.57;4.60;;;;;;;;;;5025263;28;20282;-70
2021/12/12 09:20:32;;;;;;;9.57;4.85;;;;;;;;;;5016213;28;20133;-71
2021/12/12 09:23:05;;;;;;;6.70;4.30;;;;;;;;;;5023092;28;20095;-70
2021/12/12 09:25:41;;;;;;;8.52;3.75;;;;;;;;;;5030491;28;20532;-70
2021/12/12 09:28:14;;;;;;;9.70;4.65;;;;;;;;;;5023061;28;20493;-70
2021/12/12 09:30:42;;;;;;;13.60;5.03;;;;;;;;;;5031857;28;20061;-70
2021/12/12 09:33:13;;;;;;;7.28;3.83;;;;;;;;;;5025270;28;20057;-70
2021/12/12 09:35:44;;;;;;;7.60;3.75;;;;;;;;;;5018235;28;20060;-70
2021/12/12 09:38:14;;;;;;;9.50;4.32;;;;;;;;;;5026147;28;20088;-70
2021/12/12 09:41:04;;;;;;;9.95;4.60;;;;;;;;;;5012675;28;20046;-70
2021/12/12 09:43:43;;;;;;;8.45;3.97;;;;;;;;;;5019528;28;20068;-70
2021/12/12 09:46:38;;;;;;;8.07;4.15;;;;;;;;;;5021349;28;20207;-70
2021/12/12 09:52:19;;;;;;;8.65;4.22;;;;;;;;;;5006430;28;20550;-70
2021/12/12 09:54:51;;;;;;;8.00;4.68;;;;;;;;;;5010976;28;20071;-70
2021/12/12 09:57:26;;;;;;;8.10;3.90;;;;;;;;;;5015111;28;20092;-70
2021/12/12 10:00:02;;;;;;;9.95;4.78;;;;;;;;;;5023605;28;20049;-70
2021/12/12 10:02:34;;;;;;;12.27;4.90;;;;;;;;;;5021707;28;20161;-70
2021/12/12 10:05:12;;;;;;;10.45;4.82;;;;;;;;;;5019145;28;20469;-70
2021/12/12 10:07:47;;;;;;;9.73;4.43;;;;;;;;;;5010129;28;20168;-70
2021/12/12 10:10:17;;;;;;;8.43;3.70;;;;;;;;;;5021989;28;20132;-70
2021/12/12 10:12:50;;;;;;;8.05;4.38;;;;;;;;;;5020877;28;20100;-70
2021/12/12 10:15:23;;;;;;;9.70;4.13;;;;;;;;;;5019782;28;20081;-70
2021/12/12 10:17:55;;;;;;;12.05;4.18;;;;;;;;;;5016210;28;20100;-70
2021/12/12 10:20:25;;;;;;;6.82;4.03;;;;;;;;;;5017787;28;20077;-70
2021/12/12 10:23:02;;;;;;;12.00;4.35;;;;;;;;;;5020299;28;20116;-71
2021/12/12 10:25:32;;;;;;;8.43;4.20;;;;;;;;;;5022689;28;20136;-70
2021/12/12 10:28:08;;;;;;;9.43;4.10;;;;;;;;;;5019566;28;20148;-70
2021/12/12 10:30:37;;;;;;;10.43;4.70;;;;;;;;;;5014962;28;20041;-70
2021/12/12 10:33:08;;;;;;;8.85;4.75;;;;;;;;;;5019896;28;20054;-70
2021/12/12 10:35:40;;;;;;;10.07;4.80;;;;;;;;;;5015261;28;20046;-73
2021/12/12 10:38:11;;;;;;;9.65;5.10;;;;;;;;;;5018873;28;20068;-70
2021/12/12 10:40:44;;;;;;;10.60;4.47;;;;;;;;;;5013284;28;20046;-70
2021/12/12 10:43:22;;;;;;;10.75;4.93;;;;;;;;;;5010447;28;20081;-70
2021/12/12 10:45:54;;;;;;;11.77;4.97;;;;;;;;;;5012378;28;20366;-73
2021/12/12 10:48:26;;;;;;;13.57;5.22;;;;;;;;;;5012359;28;20453;-72
2021/12/12 10:50:59;;;;;;;13.95;4.72;;;;;;;;;;5014042;28;20292;-72
2021/12/12 10:53:35;;;;;;;11.63;5.07;;;;;;;;;;5015693;28;20401;-72
2021/12/12 10:56:05;;;;;;;8.73;4.80;;;;;;;;;;5011348;28;20140;-73
2021/12/12 10:58:39;;;;;;;10.50;5.30;;;;;;;;;;5011893;28;20046;-73
2021/12/12 11:01:10;;;;;;;11.45;4.75;;;;;;;;;;5012780;28;20439;-72
2021/12/12 11:04:03;;;;;;;12.88;5.00;;;;;;;;;;5015009;28;20049;-72
2021/12/12 11:06:34;;;;;;;8.93;4.10;;;;;;;;;;5012002;28;20176;-73
2021/12/12 11:09:05;;;;;;;10.18;4.82;;;;;;;;;;5015930;28;20141;-72
2021/12/12 11:11:36;;;;;;;9.18;4.57;;;;;;;;;;5011649;28;20149;-73
2021/12/12 11:14:13;;;;;;;10.90;4.28;;;;;;;;;;5016259;28;20080;-73
2021/12/12 11:20:19;;;;;;;8.77;4.30;;;;;;;;;;5010751;28;20080;-73
2021/12/12 11:22:55;;;;;;;11.25;4.18;;;;;;;;;;4994411;28;20049;-72
2021/12/12 11:25:26;;;;;;;7.85;3.78;;;;;;;;;;4997016;28;20530;-73
2021/12/12 11:27:57;;;;;;;10.13;4.55;;;;;;;;;;4995288;28;20141;-72
2021/12/12 11:30:30;;;;;;;8.57;3.92;;;;;;;;;;5005847;28;20038;-70
2021/12/12 11:33:01;;;;;;;8.10;4.43;;;;;;;;;;4995743;28;20056;-69
2021/12/12 11:35:32;;;;;;;9.55;3.97;;;;;;;;;;4996478;28;20073;-70
2021/12/12 11:38:05;;;;;;;9.63;4.57;;;;;;;;;;4996025;28;20145;-70
2021/12/12 11:43:58;;;;;;;7.82;3.67;;;;;;;;;;4991655;28;20078;-71
2021/12/12 11:46:52;;;;;;;7.78;3.30;;;;;;;;;;5000314;28;20042;-72
2021/12/12 11:49:22;;;;;;;4.85;2.97;;;;;;;;;;4989497;28;20503;-71
2021/12/12 11:51:52;;;;;;;5.82;3.33;;;;;;;;;;4989936;28;20211;-71
2021/12/12 11:54:30;;;;;;;5.38;3.03;;;;;;;;;;4989032;28;20169;-71
2021/12/12 11:57:02;;;;;;;12.32;3.15;;;;;;;;;;4994583;28;20077;-72
2021/12/12 11:59:33;;;;;;;6.53;3.20;;;;;;;;;;4986858;28;20046;-71
2021/12/12 12:09:03;;;;;;;6.13;3.23;;;;;;;;;;4992212;28;20422;-72
2021/12/12 12:11:40;;;;;;;4.90;2.90;;;;;;;;;;4989315;28;20498;-72
2021/12/12 12:14:18;;;;;;;4.80;2.65;;;;;;;;;;4985013;28;20121;-72
2021/12/12 12:16:49;;;;;;;4.97;2.53;;;;;;;;;;4987704;28;20172;-73
2021/12/12 12:19:32;;;;;;;5.43;2.90;;;;;;;;;;4988167;28;20051;-72
2021/12/12 12:22:22;;;;;;;5.20;2.90;;;;;;;;;;4986150;28;20172;-72
2021/12/12 12:24:59;;;;;;;6.60;2.80;;;;;;;;;;4991979;28;20042;-72
2021/12/12 12:27:31;;;;;;;4.97;2.67;;;;;;;;;;4989380;28;20133;-73
2021/12/12 12:30:15;;;;;;;5.82;2.80;;;;;;;;;;4988355;28;20174;-73
2021/12/12 12:33:04;;;;;;;4.00;2.42;;;;;;;;;;4989397;28;20049;-73
2021/12/12 12:35:51;;;;;;;5.07;2.78;;;;;;;;;;4960912;28;20588;-72
2021/12/12 12:38:38;;;;;;;5.35;2.60;;;;;;;;;;4987860;28;20128;-72
2021/12/12 12:41:39;;;;;;;5.30;2.83;;;;;;;;;;4988816;28;21742;-74
2021/12/12 12:44:37;;;;;;;5.63;2.47;;;;;;;;;;4927833;28;21724;-73
2021/12/12 12:47:24;;;;;;;4.95;2.63;;;;;;;;;;4930659;28;20069;-73
2021/12/12 12:50:07;;;;;;;5.85;2.78;;;;;;;;;;4978880;28;20103;-73
2021/12/12 12:52:54;;;;;;;4.97;2.42;;;;;;;;;;4989259;28;20499;-73
2021/12/12 12:55:29;;;;;;;3.90;2.25;;;;;;;;;;4990385;28;20127;-69
2021/12/12 12:57:57;;;;;;;;;;;;;;;;;;4990014;28;20081;-70
2021/12/12 13:00:28;;;;;;;3.95;2.28;;;;;;;;;;4987336;28;20022;-70
2021/12/12 13:03:03;;;;;;;5.50;2.35;;;;;;;;;;4988583;28;20045;-67
2021/12/12 13:05:49;;;;;;;6.47;2.22;;;;;;;;;;4987030;28;20051;-67
2021/12/12 13:09:05;;;;;;;4.10;1.85;;;;;;;;;;4989957;28;20053;-67
2021/12/12 13:11:38;;;;;;;3.15;2.10;;;;;;;;;;4990130;28;20461;-66
2021/12/12 13:14:12;;;;;;;5.57;2.30;;;;;;;;;;4988055;28;20170;-67
2021/12/12 13:16:45;;;;;;;8.73;2.40;;;;;;;;;;4996547;28;20081;-67
2021/12/12 13:19:21;;;;;;;2.95;1.90;;;;;;;;;;4987959;28;20046;-67
2021/12/12 13:21:54;;;;;;;3.13;2.17;;;;;;;;;;4986518;28;20428;-67
2021/12/12 13:24:27;;;;;;;4.57;2.63;;;;;;;;;;5004624;28;20089;-67
2021/12/12 13:27:04;;;;;;;3.85;1.88;;;;;;;;;;5015514;28;20076;-67
2021/12/12 13:29:39;;;;;;;2.97;1.85;;;;;;;;;;5019552;28;20048;-67
2021/12/12 13:32:11;;;;;;;3.97;1.90;;;;;;;;;;5007900;28;20585;-67
2021/12/12 13:34:43;;;;;;;4.90;2.00;;;;;;;;;;5015689;28;20444;-67
2021/12/12 13:37:16;;;;;;;3.92;2.28;;;;;;;;;;5011650;28;20085;-67
2021/12/12 13:39:52;;;;;;;3.20;1.90;;;;;;;;;;5021242;28;20501;-67
2021/12/12 13:42:22;;;;;;;4.97;2.15;;;;;;;;;;5017654;28;20132;-67
2021/12/12 13:45:01;;;;;;;3.58;2.08;;;;;;;;;;5025641;28;20145;-67
2021/12/12 13:47:37;;;;;;;7.85;2.45;;;;;;;;;;5006683;28;20048;-67
2021/12/12 13:50:07;;;;;;;4.70;2.20;;;;;;;;;;5003706;28;20512;-67
2021/12/12 13:52:39;;;;;;;3.13;1.75;;;;;;;;;;5002470;28;21314;-67
2021/12/12 13:55:14;;;;;;;3.67;1.90;;;;;;;;;;5021075;28;20637;-68
2021/12/12 13:57:42;;;;;;;;;;;;;;;;;;5001241;28;20069;-67
2021/12/12 14:00:13;;;;;;;5.40;2.10;;;;;;;;;;5001210;28;19936;-67
2021/12/12 14:02:43;;;;;;;3.47;1.83;;;;;;;;;;5002324;28;20054;-67
2021/12/12 14:05:15;;;;;;;3.03;1.70;;;;;;;;;;5001955;28;20054;-67
2021/12/12 14:07:46;;;;;;;2.60;1.63;;;;;;;;;;5004274;28;20042;-67
2021/12/12 14:10:19;;;;;;;5.85;2.20;;;;;;;;;;5009761;28;20042;-67
2021/12/12 14:12:49;;;;;;;6.13;1.85;;;;;;;;;;5011133;28;20115;-67
2021/12/12 14:15:19;;;;;;;3.17;1.95;;;;;;;;;;5014196;28;20472;-67
2021/12/12 14:17:49;;;;;;;3.38;1.77;;;;;;;;;;5013869;28;20077;-67
2021/12/12 14:20:20;;;;;;;2.83;1.60;;;;;;;;;;5011593;28;20077;-66
2021/12/12 14:22:49;;;;;;;4.90;1.90;;;;;;;;;;5010989;28;20050;-66
2021/12/12 14:25:19;;;;;;;2.67;1.45;;;;;;;;;;4994479;28;20081;-66
2021/12/12 14:27:51;;;;;;;4.20;1.73;;;;;;;;;;4997792;28;20058;-66
2021/12/12 14:30:21;;;;;;;5.97;2.15;;;;;;;;;;4992139;28;20046;-67
2021/12/12 14:32:52;;;;;;;5.43;2.08;;;;;;;;;;4996629;28;20206;-67
2021/12/12 14:35:22;;;;;;;4.35;1.98;;;;;;;;;;4991006;28;20133;-67
2021/12/12 14:37:51;;;;;;;5.47;1.70;;;;;;;;;;4991745;28;20152;-66
2021/12/12 14:40:22;;;;;;;3.30;1.73;;;;;;;;;;4991540;28;20077;-66
2021/12/12 14:42:52;;;;;;;3.30;1.63;;;;;;;;;;4992748;28;20115;-66
2021/12/12 14:45:22;;;;;;;2.95;1.65;;;;;;;;;;4993317;28;20045;-67
2021/12/12 14:47:56;;;;;;;5.35;1.80;;;;;;;;;;4993068;28;20834;-67
2021/12/12 14:50:26;;;;;;;4.70;2.22;;;;;;;;;;4990984;28;20092;-67
2021/12/12 14:52:57;;;;;;;2.72;1.90;;;;;;;;;;4993043;28;20074;-67
2021/12/12 14:55:29;;;;;;;4.53;1.58;;;;;;;;;;4990144;28;20050;-67
2021/12/12 14:58:12;;;;;;;2.53;2.08;;;;;;;;;;4991621;28;20054;-67
2021/12/12 15:00:47;;;;;;;4.43;2.13;;;;;;;;;;4989551;28;20050;-68
2021/12/12 15:03:20;;;;;;;6.93;2.17;;;;;;;;;;4992153;28;20137;-67
2021/12/12 15:05:50;;;;;;;2.00;1.50;;;;;;;;;;4988960;28;20172;-67
2021/12/12 15:08:20;;;;;;;2.80;1.55;;;;;;;;;;4994106;28;20133;-67
2021/12/12 15:10:52;;;;;;;3.40;1.27;;;;;;;;;;4990448;28;20057;-67
2021/12/12 15:13:22;;;;;;;3.22;1.63;;;;;;;;;;4991633;28;20486;-67
2021/12/12 15:15:51;;;;;;;3.90;1.85;;;;;;;;;;4991730;28;20116;-66
2021/12/12 15:18:20;;;;;;;4.78;1.50;;;;;;;;;;4991885;28;20132;-67
2021/12/12 15:20:53;;;;;;;2.72;1.58;;;;;;;;;;4991708;28;20066;-65
2021/12/12 15:23:23;;;;;;;4.25;1.73;;;;;;;;;;4991302;28;20077;-66
2021/12/12 15:25:55;;;;;;;2.83;1.60;;;;;;;;;;5014253;28;20054;-66
2021/12/12 15:28:24;;;;;;;2.33;1.40;;;;;;;;;;5015124;28;20093;-66
2021/12/12 15:30:54;;;;;;;2.83;1.80;;;;;;;;;;5016479;28;20049;-66
2021/12/12 15:33:25;;;;;;;5.65;1.92;;;;;;;;;;5020985;28;20135;-66
2021/12/12 15:35:57;;;;;;;3.38;1.40;;;;;;;;;;5011028;28;20100;-66
2021/12/12 15:38:27;;;;;;;3.03;1.60;;;;;;;;;;5015567;28;20654;-68
2021/12/12 15:40:58;;;;;;;4.72;1.60;;;;;;;;;;5023151;28;20069;-68
2021/12/12 15:43:28;;;;;;;4.50;1.73;;;;;;;;;;5022507;28;20091;-68